sensor_id;sensor_type;location;lat;lon;timestamp;pressure;altitude;pressure_sealevel;temperature;humidity
24834;BME280;12914;43.702;22.862;2022-07-01T00:01:38;98758.13;;;31.50;44.84
24834;BME280;12914;43.702;22.862;2022-07-01T00:04:05;98760.63;;;32.60;42.71
24834;BME280;12914;43.702;22.862;2022-07-01T00:06:31;98749.25;;;32.47;42.25
24834;BME280;12914;43.702;22.862;2022-07-01T00:08:56;98749.50;;;32.33;42.61
24834;BME280;12914;43.702;22.862;2022-07-01T00:11:22;98753.53;;;31.77;43.68
24834;BME280;12914;43.702;22.862;2022-07-01T00:13:47;98743.09;;;31.66;43.69
24834;BME280;12914;43.702;22.862;2022-07-01T00:16:13;98750.63;;;31.62;44.32
24834;BME280;12914;43.702;22.862;2022-07-01T00:18:38;98754.13;;;32.29;43.47
24834;BME280;12914;43.702;22.862;2022-07-01T00:21:04;98751.28;;;32.84;43.24
24834;BME280;12914;43.702;22.862;2022-07-01T00:23:30;98763.16;;;32.56;43.07
24834;BME280;12914;43.702;22.862;2022-07-01T00:25:57;98749.25;;;32.54;43.47
24834;BME280;12914;43.702;22.862;2022-07-01T00:28:22;98754.69;;;32.35;44.19
24834;BME280;12914;43.702;22.862;2022-07-01T00:30:48;98760.88;;;32.31;44.93
24834;BME280;12914;43.702;22.862;2022-07-01T00:33:13;98765.44;;;31.28;47.18
24834;BME280;12914;43.702;22.862;2022-07-01T00:35:39;98771.25;;;31.43;47.38
24834;BME280;12914;43.702;22.862;2022-07-01T00:38:04;98765.91;;;31.70;47.09
24834;BME280;12914;43.702;22.862;2022-07-01T00:40:30;98767.16;;;31.31;48.12
24834;BME280;12914;43.702;22.862;2022-07-01T00:42:56;98765.41;;;29.02;53.39
24834;BME280;12914;43.702;22.862;2022-07-01T00:45:21;98782.34;;;29.19;53.19
24834;BME280;12914;43.702;22.862;2022-07-01T00:47:47;98773.41;;;28.83;54.75
24834;BME280;12914;43.702;22.862;2022-07-01T00:50:14;98772.53;;;28.88;53.80
24834;BME280;12914;43.702;22.862;2022-07-01T00:52:42;98782.53;;;28.60;54.72
24834;BME280;12914;43.702;22.862;2022-07-01T00:55:10;98778.75;;;28.66;54.62
24834;BME280;12914;43.702;22.862;2022-07-01T00:57:37;98779.88;;;27.78;57.67
24834;BME280;12914;43.702;22.862;2022-07-01T01:00:11;98765.75;;;28.06;57.12
24834;BME280;12914;43.702;22.862;2022-07-01T01:02:38;98774.19;;;28.83;55.69
24834;BME280;12914;43.702;22.862;2022-07-01T01:05:05;98778.63;;;28.84;55.03
24834;BME280;12914;43.702;22.862;2022-07-01T01:07:31;98781.44;;;28.24;57.25
24834;BME280;12914;43.702;22.862;2022-07-01T01:09:59;98767.16;;;27.86;58.04
24834;BME280;12914;43.702;22.862;2022-07-01T01:12:28;98787.19;;;28.37;57.02
24834;BME280;12914;43.702;22.862;2022-07-01T01:14:54;98789.84;;;28.48;57.02
24834;BME280;12914;43.702;22.862;2022-07-01T01:17:20;98788.75;;;28.38;56.70
24834;BME280;12914;43.702;22.862;2022-07-01T01:19:50;98787.41;;;29.60;53.43
24834;BME280;12914;43.702;22.862;2022-07-01T01:22:17;98789.94;;;29.43;52.94
24834;BME280;12914;43.702;22.862;2022-07-01T01:24:45;98789.78;;;30.11;51.72
24834;BME280;12914;43.702;22.862;2022-07-01T01:27:11;98788.25;;;29.68;52.41
24834;BME280;12914;43.702;22.862;2022-07-01T01:29:37;98801.38;;;29.35;53.02
24834;BME280;12914;43.702;22.862;2022-07-01T01:32:04;98803.31;;;29.19;54.30
24834;BME280;12914;43.702;22.862;2022-07-01T01:34:34;98806.16;;;29.33;53.34
24834;BME280;12914;43.702;22.862;2022-07-01T01:37:03;98791.34;;;29.02;53.66
24834;BME280;12914;43.702;22.862;2022-07-01T01:39:28;98813.66;;;28.75;55.94
24834;BME280;12914;43.702;22.862;2022-07-01T01:41:54;98810.59;;;28.02;58.12
24834;BME280;12914;43.702;22.862;2022-07-01T01:44:20;98818.56;;;28.67;56.09
24834;BME280;12914;43.702;22.862;2022-07-01T01:46:45;98823.75;;;28.69;56.58
24834;BME280;12914;43.702;22.862;2022-07-01T01:49:11;98820.22;;;28.63;56.84
24834;BME280;12914;43.702;22.862;2022-07-01T01:51:37;98823.97;;;28.71;56.02
24834;BME280;12914;43.702;22.862;2022-07-01T01:54:04;98830.63;;;28.52;57.07
24834;BME280;12914;43.702;22.862;2022-07-01T01:56:30;98829.75;;;28.71;55.91
24834;BME280;12914;43.702;22.862;2022-07-01T01:58:56;98827.66;;;28.58;56.44
24834;BME280;12914;43.702;22.862;2022-07-01T02:01:22;98823.56;;;28.08;58.39
24834;BME280;12914;43.702;22.862;2022-07-01T02:03:49;98823.66;;;28.48;57.49
24834;BME280;12914;43.702;22.862;2022-07-01T02:06:16;98833.19;;;28.69;56.47
24834;BME280;12914;43.702;22.862;2022-07-01T02:08:42;98833.94;;;29.22;55.12
24834;BME280;12914;43.702;22.862;2022-07-01T02:11:08;98833.03;;;29.62;53.64
24834;BME280;12914;43.702;22.862;2022-07-01T02:13:34;98837.63;;;28.44;57.09
24834;BME280;12914;43.702;22.862;2022-07-01T02:16:01;98835.84;;;28.41;58.13
24834;BME280;12914;43.702;22.862;2022-07-01T02:18:27;98833.75;;;28.68;57.41
24834;BME280;12914;43.702;22.862;2022-07-01T02:20:53;98842.38;;;28.28;58.04
24834;BME280;12914;43.702;22.862;2022-07-01T02:23:19;98836.81;;;28.83;56.95
24834;BME280;12914;43.702;22.862;2022-07-01T02:25:45;98843.06;;;28.60;57.08
24834;BME280;12914;43.702;22.862;2022-07-01T02:28:12;98843.44;;;28.12;59.52
24834;BME280;12914;43.702;22.862;2022-07-01T02:30:38;98838.16;;;28.42;59.06
24834;BME280;12914;43.702;22.862;2022-07-01T02:33:04;98835.41;;;28.63;58.42
24834;BME280;12914;43.702;22.862;2022-07-01T02:35:31;98845.50;;;28.56;58.86
24834;BME280;12914;43.702;22.862;2022-07-01T02:37:57;98842.59;;;28.56;57.87
24834;BME280;12914;43.702;22.862;2022-07-01T02:40:23;98850.91;;;28.34;58.47
24834;BME280;12914;43.702;22.862;2022-07-01T02:42:48;98856.88;;;28.04;58.57
24834;BME280;12914;43.702;22.862;2022-07-01T02:45:14;98852.13;;;28.25;58.85
24834;BME280;12914;43.702;22.862;2022-07-01T02:47:40;98843.38;;;28.31;58.30
24834;BME280;12914;43.702;22.862;2022-07-01T02:50:08;98844.50;;;28.09;58.65
24834;BME280;12914;43.702;22.862;2022-07-01T02:52:35;98856.16;;;28.16;59.17
24834;BME280;12914;43.702;22.862;2022-07-01T02:55:03;98857.03;;;28.11;58.93
24834;BME280;12914;43.702;22.862;2022-07-01T02:57:29;98858.31;;;28.29;57.25
24834;BME280;12914;43.702;22.862;2022-07-01T02:59:55;98855.00;;;28.25;57.89
24834;BME280;12914;43.702;22.862;2022-07-01T03:02:21;98860.44;;;28.42;57.53
24834;BME280;12914;43.702;22.862;2022-07-01T03:04:47;98866.34;;;27.85;59.73
24834;BME280;12914;43.702;22.862;2022-07-01T03:07:14;98870.44;;;27.58;61.88
24834;BME280;12914;43.702;22.862;2022-07-01T03:09:41;98868.69;;;28.19;59.79
24834;BME280;12914;43.702;22.862;2022-07-01T03:12:11;98862.00;;;28.69;58.02
24834;BME280;12914;43.702;22.862;2022-07-01T03:15:19;98879.00;;;28.86;57.98
24834;BME280;12914;43.702;22.862;2022-07-01T03:17:46;98893.59;;;28.75;56.27
24834;BME280;12914;43.702;22.862;2022-07-01T03:20:15;98893.84;;;27.49;58.96
24834;BME280;12914;43.702;22.862;2022-07-01T03:22:42;98892.84;;;27.27;61.50
24834;BME280;12914;43.702;22.862;2022-07-01T03:25:08;98893.59;;;26.60;65.65
24834;BME280;12914;43.702;22.862;2022-07-01T03:27:35;98894.47;;;27.42;64.39
24834;BME280;12914;43.702;22.862;2022-07-01T03:30:02;98894.94;;;27.46;62.77
24834;BME280;12914;43.702;22.862;2022-07-01T03:32:28;98898.03;;;28.17;60.89
24834;BME280;12914;43.702;22.862;2022-07-01T03:34:54;98894.78;;;28.08;61.98
24834;BME280;12914;43.702;22.862;2022-07-01T03:37:20;98898.06;;;27.98;62.50
24834;BME280;12914;43.702;22.862;2022-07-01T03:39:47;98910.03;;;28.03;61.71
24834;BME280;12914;43.702;22.862;2022-07-01T03:42:13;98908.69;;;27.90;62.02
24834;BME280;12914;43.702;22.862;2022-07-01T03:44:39;98913.44;;;28.20;60.87
24834;BME280;12914;43.702;22.862;2022-07-01T03:47:05;98910.00;;;28.53;60.00
24834;BME280;12914;43.702;22.862;2022-07-01T03:49:32;98909.03;;;29.43;56.75
24834;BME280;12914;43.702;22.862;2022-07-01T03:51:58;98914.59;;;29.02;56.96
24834;BME280;12914;43.702;22.862;2022-07-01T03:54:23;98918.31;;;29.63;55.86
24834;BME280;12914;43.702;22.862;2022-07-01T03:57:03;98920.09;;;29.86;54.95
24834;BME280;12914;43.702;22.862;2022-07-01T03:59:32;98929.47;;;30.34;55.30
24834;BME280;12914;43.702;22.862;2022-07-01T04:01:59;98930.03;;;30.12;53.42
24834;BME280;12914;43.702;22.862;2022-07-01T04:04:26;98928.56;;;29.37;55.52
24834;BME280;12914;43.702;22.862;2022-07-01T04:06:57;98923.16;;;29.20;56.50
24834;BME280;12914;43.702;22.862;2022-07-01T04:09:24;98929.44;;;29.06;56.89
24834;BME280;12914;43.702;22.862;2022-07-01T04:11:50;98920.78;;;29.45;55.75
24834;BME280;12914;43.702;22.862;2022-07-01T04:14:16;98929.09;;;30.17;54.77
24834;BME280;12914;43.702;22.862;2022-07-01T04:16:43;98931.59;;;30.00;54.53
24834;BME280;12914;43.702;22.862;2022-07-01T04:19:09;98934.00;;;30.92;52.91
24834;BME280;12914;43.702;22.862;2022-07-01T04:21:36;98939.38;;;30.88;52.13
24834;BME280;12914;43.702;22.862;2022-07-01T04:24:20;98940.69;;;31.44;51.83
24834;BME280;12914;43.702;22.862;2022-07-01T04:26:48;98945.94;;;31.53;51.68
24834;BME280;12914;43.702;22.862;2022-07-01T04:29:14;98932.38;;;31.12;52.47
24834;BME280;12914;43.702;22.862;2022-07-01T04:31:39;98938.06;;;30.97;51.98
24834;BME280;12914;43.702;22.862;2022-07-01T04:34:06;98942.66;;;30.64;53.61
24834;BME280;12914;43.702;22.862;2022-07-01T04:36:33;98935.06;;;31.10;52.59
24834;BME280;12914;43.702;22.862;2022-07-01T04:38:59;98941.94;;;30.99;52.64
24834;BME280;12914;43.702;22.862;2022-07-01T04:41:25;98944.59;;;29.72;55.82
24834;BME280;12914;43.702;22.862;2022-07-01T04:44:09;98941.69;;;29.72;56.27
24834;BME280;12914;43.702;22.862;2022-07-01T04:46:35;98943.69;;;30.74;54.57
24834;BME280;12914;43.702;22.862;2022-07-01T04:49:00;98949.59;;;30.06;55.25
24834;BME280;12914;43.702;22.862;2022-07-01T04:51:26;98946.75;;;30.27;55.21
24834;BME280;12914;43.702;22.862;2022-07-01T04:53:53;98951.31;;;30.85;54.48
24834;BME280;12914;43.702;22.862;2022-07-01T04:56:19;98964.50;;;29.97;56.64
24834;BME280;12914;43.702;22.862;2022-07-01T04:58:45;98953.50;;;30.71;56.58
24834;BME280;12914;43.702;22.862;2022-07-01T05:01:11;98958.38;;;31.25;54.13
24834;BME280;12914;43.702;22.862;2022-07-01T05:03:36;98949.56;;;30.19;56.68
24834;BME280;12914;43.702;22.862;2022-07-01T05:06:02;98954.22;;;30.43;55.69
24834;BME280;12914;43.702;22.862;2022-07-01T05:08:28;98955.47;;;30.13;58.49
24834;BME280;12914;43.702;22.862;2022-07-01T05:10:54;98953.63;;;31.15;55.19
24834;BME280;12914;43.702;22.862;2022-07-01T05:13:19;98955.00;;;31.50;55.59
24834;BME280;12914;43.702;22.862;2022-07-01T05:15:45;98955.13;;;31.08;54.52
24834;BME280;12914;43.702;22.862;2022-07-01T05:18:11;98948.47;;;30.92;56.44
24834;BME280;12914;43.702;22.862;2022-07-01T05:20:55;98947.56;;;31.05;56.70
24834;BME280;12914;43.702;22.862;2022-07-01T05:23:39;98953.53;;;31.28;56.49
24834;BME280;12914;43.702;22.862;2022-07-01T05:26:05;98945.97;;;31.61;54.82
24834;BME280;12914;43.702;22.862;2022-07-01T05:28:31;98945.13;;;31.89;55.52
24834;BME280;12914;43.702;22.862;2022-07-01T05:30:56;98936.09;;;31.49;55.70
24834;BME280;12914;43.702;22.862;2022-07-01T05:33:22;98958.41;;;32.35;53.85
24834;BME280;12914;43.702;22.862;2022-07-01T05:35:54;98963.03;;;33.07;52.83
24834;BME280;12914;43.702;22.862;2022-07-01T05:38:20;98957.16;;;32.23;53.60
24834;BME280;12914;43.702;22.862;2022-07-01T05:40:46;98958.41;;;31.77;55.22
24834;BME280;12914;43.702;22.862;2022-07-01T05:43:11;98965.81;;;31.93;53.67
24834;BME280;12914;43.702;22.862;2022-07-01T05:45:37;98967.13;;;32.51;52.75
24834;BME280;12914;43.702;22.862;2022-07-01T05:48:03;98973.88;;;32.53;50.84
24834;BME280;12914;43.702;22.862;2022-07-01T05:50:28;98972.38;;;31.93;53.15
24834;BME280;12914;43.702;22.862;2022-07-01T05:52:54;98981.13;;;32.16;51.29
24834;BME280;12914;43.702;22.862;2022-07-01T05:55:20;98979.69;;;33.07;50.34
24834;BME280;12914;43.702;22.862;2022-07-01T05:57:45;98975.44;;;33.00;48.93
24834;BME280;12914;43.702;22.862;2022-07-01T06:00:12;98969.97;;;33.42;49.35
24834;BME280;12914;43.702;22.862;2022-07-01T06:02:37;98970.00;;;32.74;50.91
24834;BME280;12914;43.702;22.862;2022-07-01T06:05:03;98969.94;;;32.20;51.17
24834;BME280;12914;43.702;22.862;2022-07-01T06:07:29;98969.41;;;33.36;51.46
24834;BME280;12914;43.702;22.862;2022-07-01T06:09:55;98973.13;;;32.98;49.89
24834;BME280;12914;43.702;22.862;2022-07-01T06:12:21;98979.88;;;32.48;51.15
24834;BME280;12914;43.702;22.862;2022-07-01T06:14:47;98974.25;;;31.75;52.70
24834;BME280;12914;43.702;22.862;2022-07-01T06:17:13;98970.19;;;33.14;50.17
24834;BME280;12914;43.702;22.862;2022-07-01T06:19:39;98972.22;;;33.59;49.98
24834;BME280;12914;43.702;22.862;2022-07-01T06:22:05;98977.97;;;34.14;48.95
24834;BME280;12914;43.702;22.862;2022-07-01T06:24:31;98976.47;;;33.66;49.38
24834;BME280;12914;43.702;22.862;2022-07-01T06:26:57;98974.28;;;34.14;48.93
24834;BME280;12914;43.702;22.862;2022-07-01T06:29:23;98972.34;;;33.84;47.73
24834;BME280;12914;43.702;22.862;2022-07-01T06:31:48;98969.09;;;33.64;49.14
24834;BME280;12914;43.702;22.862;2022-07-01T06:34:14;98973.94;;;33.70;48.82
24834;BME280;12914;43.702;22.862;2022-07-01T06:36:40;98971.16;;;33.31;47.39
24834;BME280;12914;43.702;22.862;2022-07-01T06:39:05;98974.84;;;33.80;47.23
24834;BME280;12914;43.702;22.862;2022-07-01T06:41:31;98973.84;;;33.22;46.25
24834;BME280;12914;43.702;22.862;2022-07-01T06:44:01;98972.97;;;33.67;45.16
24834;BME280;12914;43.702;22.862;2022-07-01T06:46:28;98975.72;;;33.57;45.41
24834;BME280;12914;43.702;22.862;2022-07-01T06:48:54;98966.84;;;34.28;46.02
24834;BME280;12914;43.702;22.862;2022-07-01T06:51:21;98969.75;;;33.95;45.82
24834;BME280;12914;43.702;22.862;2022-07-01T06:53:47;98955.81;;;33.94;47.04
24834;BME280;12914;43.702;22.862;2022-07-01T06:56:15;98974.97;;;34.87;45.38
24834;BME280;12914;43.702;22.862;2022-07-01T06:58:42;98976.78;;;35.42;44.43
24834;BME280;12914;43.702;22.862;2022-07-01T07:01:08;98978.94;;;34.74;44.62
24834;BME280;12914;43.702;22.862;2022-07-01T07:03:34;98972.47;;;36.22;43.01
24834;BME280;12914;43.702;22.862;2022-07-01T07:05:59;98978.19;;;36.83;42.11
24834;BME280;12914;43.702;22.862;2022-07-01T07:08:30;98976.75;;;34.57;43.81
24834;BME280;12914;43.702;22.862;2022-07-01T07:10:56;98977.50;;;35.08;43.33
24834;BME280;12914;43.702;22.862;2022-07-01T07:13:22;98975.56;;;34.28;44.53
24834;BME280;12914;43.702;22.862;2022-07-01T07:15:48;98980.97;;;35.66;44.10
24834;BME280;12914;43.702;22.862;2022-07-01T07:18:13;98976.91;;;35.09;43.56
24834;BME280;12914;43.702;22.862;2022-07-01T07:20:39;98984.94;;;36.86;43.03
24834;BME280;12914;43.702;22.862;2022-07-01T07:23:05;98977.97;;;36.18;43.13
24834;BME280;12914;43.702;22.862;2022-07-01T07:25:31;98980.41;;;36.38;43.02
24834;BME280;12914;43.702;22.862;2022-07-01T07:27:57;98977.09;;;35.98;44.19
24834;BME280;12914;43.702;22.862;2022-07-01T07:30:23;98986.03;;;36.54;42.84
24834;BME280;12914;43.702;22.862;2022-07-01T07:32:48;98985.16;;;37.17;42.50
24834;BME280;12914;43.702;22.862;2022-07-01T07:35:14;98981.53;;;35.99;43.67
24834;BME280;12914;43.702;22.862;2022-07-01T07:37:40;98985.50;;;36.74;43.12
24834;BME280;12914;43.702;22.862;2022-07-01T07:40:07;98977.31;;;38.35;40.53
24834;BME280;12914;43.702;22.862;2022-07-01T07:42:38;98977.38;;;38.16;41.43
24834;BME280;12914;43.702;22.862;2022-07-01T07:45:05;98984.03;;;40.16;38.35
24834;BME280;12914;43.702;22.862;2022-07-01T07:47:35;98986.81;;;38.55;38.59
24834;BME280;12914;43.702;22.862;2022-07-01T07:50:02;98981.47;;;39.35;36.66
24834;BME280;12914;43.702;22.862;2022-07-01T07:52:28;98979.09;;;38.59;37.98
24834;BME280;12914;43.702;22.862;2022-07-01T07:54:54;98982.22;;;41.26;34.79
24834;BME280;12914;43.702;22.862;2022-07-01T07:57:19;98969.81;;;43.48;32.92
24834;BME280;12914;43.702;22.862;2022-07-01T07:59:45;98978.13;;;40.72;34.70
24834;BME280;12914;43.702;22.862;2022-07-01T08:02:10;98972.75;;;42.01;36.30
24834;BME280;12914;43.702;22.862;2022-07-01T08:04:36;98979.84;;;43.71;33.09
24834;BME280;12914;43.702;22.862;2022-07-01T08:07:02;98972.53;;;41.72;34.21
24834;BME280;12914;43.702;22.862;2022-07-01T08:09:28;98977.97;;;42.54;33.13
24834;BME280;12914;43.702;22.862;2022-07-01T08:11:53;98962.84;;;43.42;32.61
24834;BME280;12914;43.702;22.862;2022-07-01T08:14:19;98959.34;;;40.42;34.86
24834;BME280;12914;43.702;22.862;2022-07-01T08:16:44;98964.63;;;44.51;32.21
24834;BME280;12914;43.702;22.862;2022-07-01T08:19:10;98962.03;;;44.59;31.59
24834;BME280;12914;43.702;22.862;2022-07-01T08:21:35;98974.63;;;42.73;33.10
24834;BME280;12914;43.702;22.862;2022-07-01T08:24:01;98970.72;;;42.04;34.73
24834;BME280;12914;43.702;22.862;2022-07-01T08:26:27;98974.91;;;43.61;31.36
24834;BME280;12914;43.702;22.862;2022-07-01T08:28:52;98985.31;;;42.66;33.53
24834;BME280;12914;43.702;22.862;2022-07-01T08:31:18;98978.03;;;41.54;34.08
24834;BME280;12914;43.702;22.862;2022-07-01T08:33:44;98986.72;;;42.26;33.71
24834;BME280;12914;43.702;22.862;2022-07-01T08:36:09;98976.59;;;42.04;35.52
24834;BME280;12914;43.702;22.862;2022-07-01T08:38:36;98981.22;;;43.83;33.16
24834;BME280;12914;43.702;22.862;2022-07-01T08:41:02;98977.97;;;43.63;32.59
24834;BME280;12914;43.702;22.862;2022-07-01T08:43:29;98972.13;;;43.36;32.95
24834;BME280;12914;43.702;22.862;2022-07-01T08:45:58;98962.97;;;43.03;34.09
24834;BME280;12914;43.702;22.862;2022-07-01T08:48:24;98960.00;;;43.87;34.05
24834;BME280;12914;43.702;22.862;2022-07-01T08:50:50;98964.06;;;43.09;34.59
24834;BME280;12914;43.702;22.862;2022-07-01T08:53:16;98960.31;;;42.28;32.27
24834;BME280;12914;43.702;22.862;2022-07-01T08:55:41;98961.59;;;43.74;32.21
24834;BME280;12914;43.702;22.862;2022-07-01T08:58:27;98951.72;;;44.13;31.34
24834;BME280;12914;43.702;22.862;2022-07-01T09:01:12;98965.31;;;43.75;32.93
24834;BME280;12914;43.702;22.862;2022-07-01T09:03:38;98963.81;;;44.35;31.98
24834;BME280;12914;43.702;22.862;2022-07-01T09:06:11;98966.94;;;44.84;31.24
24834;BME280;12914;43.702;22.862;2022-07-01T09:08:37;98960.69;;;44.01;32.40
24834;BME280;12914;43.702;22.862;2022-07-01T09:11:32;98964.22;;;44.58;31.85
24834;BME280;12914;43.702;22.862;2022-07-01T09:14:15;98960.81;;;44.64;31.78
24834;BME280;12914;43.702;22.862;2022-07-01T09:16:48;98959.06;;;43.69;30.87
24834;BME280;12914;43.702;22.862;2022-07-01T09:19:15;98962.22;;;44.02;31.28
24834;BME280;12914;43.702;22.862;2022-07-01T09:21:42;98958.28;;;44.27;30.45
24834;BME280;12914;43.702;22.862;2022-07-01T09:29:36;98967.91;;;44.12;31.06
24834;BME280;12914;43.702;22.862;2022-07-01T09:32:06;98964.91;;;44.57;28.35
24834;BME280;12914;43.702;22.862;2022-07-01T09:34:44;98969.34;;;44.26;31.80
24834;BME280;12914;43.702;22.862;2022-07-01T09:37:15;98961.66;;;44.82;31.43
24834;BME280;12914;43.702;22.862;2022-07-01T09:39:45;98958.84;;;44.08;32.40
24834;BME280;12914;43.702;22.862;2022-07-01T09:42:11;98956.88;;;43.99;30.40
24834;BME280;12914;43.702;22.862;2022-07-01T09:47:30;98952.16;;;43.64;29.98
24834;BME280;12914;43.702;22.862;2022-07-01T09:49:56;98943.81;;;44.17;29.97
24834;BME280;12914;43.702;22.862;2022-07-01T09:52:23;98944.50;;;44.79;32.09
24834;BME280;12914;43.702;22.862;2022-07-01T09:54:50;98952.25;;;45.35;30.47
24834;BME280;12914;43.702;22.862;2022-07-01T09:57:20;98944.69;;;44.99;31.81
24834;BME280;12914;43.702;22.862;2022-07-01T09:59:47;98956.91;;;44.75;30.32
24834;BME280;12914;43.702;22.862;2022-07-01T10:02:13;98953.25;;;45.42;29.80
24834;BME280;12914;43.702;22.862;2022-07-01T10:04:45;98943.41;;;44.09;31.31
24834;BME280;12914;43.702;22.862;2022-07-01T10:10:23;98943.66;;;44.45;28.72
24834;BME280;12914;43.702;22.862;2022-07-01T10:12:56;98941.34;;;45.40;28.90
24834;BME280;12914;43.702;22.862;2022-07-01T10:15:25;98939.22;;;45.25;29.60
24834;BME280;12914;43.702;22.862;2022-07-01T10:17:52;98943.00;;;45.61;27.30
24834;BME280;12914;43.702;22.862;2022-07-01T10:20:28;98944.81;;;45.34;27.82
24834;BME280;12914;43.702;22.862;2022-07-01T10:23:06;98939.22;;;45.09;26.44
24834;BME280;12914;43.702;22.862;2022-07-01T10:28:20;98944.59;;;47.12;25.92
24834;BME280;12914;43.702;22.862;2022-07-01T10:31:04;98939.56;;;46.02;24.81
24834;BME280;12914;43.702;22.862;2022-07-01T10:33:31;98942.22;;;45.78;26.95
24834;BME280;12914;43.702;22.862;2022-07-01T10:36:30;98937.78;;;46.70;24.21
24834;BME280;12914;43.702;22.862;2022-07-01T10:41:27;98942.28;;;44.16;24.94
24834;BME280;12914;43.702;22.862;2022-07-01T10:43:56;98933.91;;;45.05;25.51
24834;BME280;12914;43.702;22.862;2022-07-01T10:49:13;98930.50;;;44.48;29.13
24834;BME280;12914;43.702;22.862;2022-07-01T10:51:49;98921.31;;;44.73;26.71
24834;BME280;12914;43.702;22.862;2022-07-01T10:57:20;98922.22;;;44.92;26.02
24834;BME280;12914;43.702;22.862;2022-07-01T11:02:37;98909.72;;;44.77;26.55
24834;BME280;12914;43.702;22.862;2022-07-01T11:05:14;98904.66;;;45.29;25.87
24834;BME280;12914;43.702;22.862;2022-07-01T11:07:42;98902.13;;;45.39;24.07
24834;BME280;12914;43.702;22.862;2022-07-01T11:10:10;98905.03;;;47.05;24.48
24834;BME280;12914;43.702;22.862;2022-07-01T11:12:36;98899.94;;;47.72;25.16
24834;BME280;12914;43.702;22.862;2022-07-01T11:15:03;98895.09;;;46.77;25.12
24834;BME280;12914;43.702;22.862;2022-07-01T11:17:31;98894.13;;;46.33;26.29
24834;BME280;12914;43.702;22.862;2022-07-01T11:19:59;98890.84;;;46.62;24.15
24834;BME280;12914;43.702;22.862;2022-07-01T11:22:29;98893.25;;;46.68;27.38
24834;BME280;12914;43.702;22.862;2022-07-01T11:25:00;98883.31;;;46.99;24.29
24834;BME280;12914;43.702;22.862;2022-07-01T11:27:26;98876.63;;;46.59;25.19
24834;BME280;12914;43.702;22.862;2022-07-01T11:29:56;98865.16;;;47.30;24.86
24834;BME280;12914;43.702;22.862;2022-07-01T11:32:31;98868.50;;;46.59;24.19
24834;BME280;12914;43.702;22.862;2022-07-01T11:34:57;98859.84;;;48.92;24.69
24834;BME280;12914;43.702;22.862;2022-07-01T11:37:29;98857.44;;;47.87;24.39
24834;BME280;12914;43.702;22.862;2022-07-01T11:40:16;98857.84;;;47.33;23.50
24834;BME280;12914;43.702;22.862;2022-07-01T11:42:43;98854.16;;;48.24;22.95
24834;BME280;12914;43.702;22.862;2022-07-01T11:45:22;98847.47;;;48.76;23.40
24834;BME280;12914;43.702;22.862;2022-07-01T11:47:49;98851.88;;;48.49;24.65
24834;BME280;12914;43.702;22.862;2022-07-01T11:50:15;98846.00;;;47.79;23.74
24834;BME280;12914;43.702;22.862;2022-07-01T11:52:41;98855.28;;;46.62;25.07
24834;BME280;12914;43.702;22.862;2022-07-01T11:55:07;98845.72;;;46.44;23.98
24834;BME280;12914;43.702;22.862;2022-07-01T11:57:33;98838.78;;;48.08;24.41
24834;BME280;12914;43.702;22.862;2022-07-01T12:00:08;98836.78;;;47.69;23.21
24834;BME280;12914;43.702;22.862;2022-07-01T12:02:34;98842.84;;;48.19;23.52
24834;BME280;12914;43.702;22.862;2022-07-01T12:05:00;98842.59;;;48.60;23.69
24834;BME280;12914;43.702;22.862;2022-07-01T12:07:27;98840.16;;;49.35;22.84
24834;BME280;12914;43.702;22.862;2022-07-01T12:09:53;98841.25;;;48.91;23.61
24834;BME280;12914;43.702;22.862;2022-07-01T12:12:22;98837.59;;;47.93;22.85
24834;BME280;12914;43.702;22.862;2022-07-01T12:14:58;98836.56;;;48.09;24.47
24834;BME280;12914;43.702;22.862;2022-07-01T12:17:25;98829.56;;;47.52;24.21
24834;BME280;12914;43.702;22.862;2022-07-01T12:19:53;98829.56;;;47.52;23.90
24834;BME280;12914;43.702;22.862;2022-07-01T12:22:21;98829.06;;;47.38;24.26
24834;BME280;12914;43.702;22.862;2022-07-01T12:24:50;98839.66;;;47.01;24.44
24834;BME280;12914;43.702;22.862;2022-07-01T12:27:17;98823.94;;;46.97;22.61
24834;BME280;12914;43.702;22.862;2022-07-01T12:32:12;98827.16;;;46.24;23.54
24834;BME280;12914;43.702;22.862;2022-07-01T12:34:53;98826.00;;;48.53;22.97
24834;BME280;12914;43.702;22.862;2022-07-01T12:40:22;98816.19;;;49.59;23.12
24834;BME280;12914;43.702;22.862;2022-07-01T12:42:46;98808.78;;;48.22;22.91
24834;BME280;12914;43.702;22.862;2022-07-01T12:45:14;98815.00;;;46.55;24.27
24834;BME280;12914;43.702;22.862;2022-07-01T12:47:46;98806.84;;;47.61;24.42
24834;BME280;12914;43.702;22.862;2022-07-01T12:50:25;98807.91;;;48.95;23.88
24834;BME280;12914;43.702;22.862;2022-07-01T12:53:16;98805.69;;;48.96;23.91
24834;BME280;12914;43.702;22.862;2022-07-01T12:55:56;98799.78;;;49.90;22.66
24834;BME280;12914;43.702;22.862;2022-07-01T12:58:26;98799.53;;;49.17;21.44
24834;BME280;12914;43.702;22.862;2022-07-01T13:00:56;98791.63;;;48.46;22.95
24834;BME280;12914;43.702;22.862;2022-07-01T13:03:25;98792.91;;;48.39;23.63
24834;BME280;12914;43.702;22.862;2022-07-01T13:05:52;98799.34;;;48.55;24.93
24834;BME280;12914;43.702;22.862;2022-07-01T13:08:18;98785.56;;;50.54;20.86
24834;BME280;12914;43.702;22.862;2022-07-01T13:10:45;98789.75;;;50.77;21.30
24834;BME280;12914;43.702;22.862;2022-07-01T13:13:12;98792.69;;;51.15;21.95
24834;BME280;12914;43.702;22.862;2022-07-01T13:15:38;98785.28;;;49.42;21.02
24834;BME280;12914;43.702;22.862;2022-07-01T13:18:04;98778.56;;;49.71;22.54
24834;BME280;12914;43.702;22.862;2022-07-01T13:20:30;98775.66;;;49.43;20.64
24834;BME280;12914;43.702;22.862;2022-07-01T13:22:56;98779.13;;;49.34;21.48
24834;BME280;12914;43.702;22.862;2022-07-01T13:25:22;98773.44;;;50.08;20.63